Time;durP1;ratioP1;P1;durP2;ratioP2;P2;SDS_P1;SDS_P2;PMS_P1;PMS_P2;Temp;Humidity;BMP_temperature;BMP_pressure;BME280_temperature;BME280_humidity;BME280_pressure;Samples;Min_cycle;Max_cycle;Signal;HPM_P1;HPM_P2
2023/02/22 00:00:55;;;;;;;0.20;0.20;;;;;;;10.64;57.05;99887.75;4429501;32;34133;-87
2023/02/22 00:03:26;;;;;;;0.10;0.10;;;;;;;10.73;56.81;99892.66;4424789;32;34828;-88
2023/02/22 00:05:58;;;;;;;0.00;0.00;;;;;;;10.84;56.29;99897.47;4426147;32;32779;-88
2023/02/22 00:08:31;;;;;;;0.10;0.10;;;;;;;10.76;56.33;99897.78;4428979;32;32546;-87
2023/02/22 00:11:00;;;;;;;0.15;0.15;;;;;;;10.51;56.84;99905.88;4429911;32;33126;-85
2023/02/22 00:13:28;;;;;;;0.25;0.25;;;;;;;10.54;56.75;99904.88;4434066;32;33025;-85
2023/02/22 00:15:56;;;;;;;0.00;0.00;;;;;;;10.32;57.55;99907.56;4437018;32;32536;-85
2023/02/22 00:18:26;;;;;;;0.60;0.60;;;;;;;10.29;57.75;99897.97;4448955;32;34072;-85
2023/02/22 00:20:59;;;;;;;0.73;0.73;;;;;;;10.42;57.46;99904.47;4432205;32;32722;-85
2023/02/22 00:23:29;;;;;;;0.00;0.00;;;;;;;10.53;57.05;99904.03;4432078;32;33966;-85
2023/02/22 00:25:58;;;;;;;0.28;0.28;;;;;;;10.42;57.51;99904.47;4427523;32;35502;-85
2023/02/22 00:28:26;;;;;;;0.93;0.55;;;;;;;10.52;57.30;99899.66;4424147;32;32310;-85
2023/02/22 00:30:54;;;;;;;0.08;0.05;;;;;;;10.63;56.78;99907.13;4443579;32;33051;-85
2023/02/22 00:33:22;;;;;;;0.00;0.00;;;;;;;10.49;57.18;99908.59;4441954;32;33002;-86
2023/02/22 00:35:50;;;;;;;0.77;0.45;;;;;;;10.29;58.01;99905.91;4436015;32;32836;-86
2023/02/22 00:38:18;;;;;;;1.45;0.57;;;;;;;10.54;57.40;99910.16;4443690;32;32000;-85
2023/02/22 00:40:46;;;;;;;0.00;0.00;;;;;;;10.37;57.68;99916.16;4434300;32;33545;-85
2023/02/22 00:43:14;;;;;;;0.00;0.00;;;;;;;10.46;57.27;99916.63;4430477;32;34007;-87
2023/02/22 00:45:42;;;;;;;0.00;0.00;;;;;;;10.63;56.67;99905.34;4441947;32;33752;-87
2023/02/22 00:48:10;;;;;;;0.00;0.00;;;;;;;10.54;56.84;99902.25;4434456;32;35546;-87
2023/02/22 00:50:37;;;;;;;0.52;0.20;;;;;;;10.47;57.00;99909.56;4416335;32;32299;-87
2023/02/22 00:53:06;;;;;;;0.10;0.10;;;;;;;10.48;56.94;99914.78;4440404;32;33996;-87
2023/02/22 00:55:36;;;;;;;0.00;0.00;;;;;;;10.54;56.64;99902.25;4428481;32;33991;-87
2023/02/22 00:58:04;;;;;;;0.00;0.00;;;;;;;10.36;57.11;99902.09;4412507;32;33211;-87
2023/02/22 01:00:36;;;;;;;0.20;0.20;;;;;;;10.39;57.14;99909.00;4442831;32;32429;-88
2023/02/22 01:03:05;;;;;;;3.60;0.25;;;;;;;10.50;56.78;99897.09;4445245;32;33507;-89
2023/02/22 01:05:34;;;;;;;0.25;0.25;;;;;;;10.54;56.79;99894.31;4432350;32;34145;-89
2023/02/22 01:08:05;;;;;;;1.55;1.15;;;;;;;10.72;55.90;99896.19;4428661;32;33568;-89
2023/02/22 01:10:34;;;;;;;0.82;0.82;;;;;;;10.42;56.91;99893.91;4440346;32;33099;-88
2023/02/22 01:13:07;;;;;;;0.13;0.13;;;;;;;10.56;56.65;99895.97;4427946;32;34447;-87
2023/02/22 01:15:37;;;;;;;0.32;0.30;;;;;;;10.42;57.01;99888.63;4396053;32;33000;-86
2023/02/22 01:18:06;;;;;;;0.37;0.37;;;;;;;10.43;57.17;99886.84;4408463;32;33252;-86
2023/02/22 01:20:33;;;;;;;1.00;0.40;;;;;;;10.42;57.35;99893.91;4409547;32;32997;-86
2023/02/22 01:23:05;;;;;;;0.57;0.57;;;;;;;10.48;57.15;99890.16;4414589;32;33478;-86
2023/02/22 01:25:34;;;;;;;0.13;0.13;;;;;;;10.45;57.03;99893.81;4405560;32;32952;-86
2023/02/22 01:28:03;;;;;;;0.03;0.03;;;;;;;10.37;57.40;99889.75;4405120;32;34098;-86
2023/02/22 01:30:34;;;;;;;0.28;0.28;;;;;;;10.39;57.25;99894.03;4424747;32;33492;-86
2023/02/22 01:33:04;;;;;;;0.00;0.00;;;;;;;10.37;57.43;99879.19;4422422;32;34078;-86
2023/02/22 01:35:34;;;;;;;1.12;0.45;;;;;;;10.40;57.29;99885.22;4415640;32;32512;-86
2023/02/22 01:38:02;;;;;;;0.17;0.17;;;;;;;10.63;55.94;99886.00;4405471;32;33940;-86
2023/02/22 01:40:49;;;;;;;0.50;0.50;;;;;;;10.09;57.85;99885.56;4408367;32;32832;-86
2023/02/22 01:43:22;;;;;;;0.10;0.10;;;;;;;9.98;58.32;99882.50;4404481;32;33259;-85
2023/02/22 01:46:21;;;;;;;0.00;0.00;;;;;;;10.08;57.82;99883.84;4419217;32;34387;-89
2023/02/22 01:48:54;;;;;;;0.00;0.00;;;;;;;10.36;56.08;99878.34;4420457;32;32876;-89
2023/02/22 01:51:36;;;;;;;0.10;0.10;;;;;;;9.90;57.69;99880.16;4431680;32;32921;-88
2023/02/22 01:54:14;;;;;;;0.20;0.20;;;;;;;9.96;57.71;99879.91;4425370;32;34284;-86
2023/02/22 01:56:49;;;;;;;0.15;0.15;;;;;;;9.69;58.53;99883.66;4427793;32;34477;-86
2023/02/22 01:59:19;;;;;;;0.00;0.00;;;;;;;9.62;58.92;99885.66;4413011;32;33992;-86
2023/02/22 02:01:47;;;;;;;0.20;0.20;;;;;;;9.64;58.87;99885.63;4422641;32;32829;-86
2023/02/22 02:04:24;;;;;;;1.17;1.08;;;;;;;9.64;58.99;99883.84;4411433;32;33839;-86
2023/02/22 02:06:57;;;;;;;0.80;0.32;;;;;;;9.60;59.03;99886.66;4416005;32;32819;-87
2023/02/22 02:09:32;;;;;;;0.00;0.00;;;;;;;9.81;57.73;99869.13;4408392;32;33156;-87
2023/02/22 02:12:01;;;;;;;0.10;0.10;;;;;;;9.60;58.38;99884.00;4421895;32;33404;-87
2023/02/22 02:14:39;;;;;;;0.25;0.25;;;;;;;9.81;57.55;99874.41;4422299;32;34004;-87
2023/02/22 02:17:12;;;;;;;1.75;1.02;;;;;;;9.48;58.42;99878.28;4417093;32;33549;-87
2023/02/22 02:19:55;;;;;;;0.25;0.25;;;;;;;9.35;58.90;99886.69;4419917;32;32840;-87
2023/02/22 02:22:42;;;;;;;1.10;1.10;;;;;;;9.16;59.28;99881.25;4430814;32;33961;-86
2023/02/22 02:25:16;;;;;;;5.05;1.40;;;;;;;9.05;59.75;99886.91;4421011;32;33504;-87
2023/02/22 02:28:19;;;;;;;0.20;0.20;;;;;;;9.48;58.37;99878.28;4433878;32;33155;-88
2023/02/22 02:31:20;;;;;;;0.00;0.00;;;;;;;9.13;59.62;99881.38;4403365;32;32879;-89
2023/02/22 02:33:54;;;;;;;0.10;0.10;;;;;;;9.08;60.32;99888.59;4410475;32;33945;-88
2023/02/22 02:36:34;;;;;;;0.32;0.32;;;;;;;9.80;57.58;99883.22;4438939;32;33194;-90
2023/02/22 02:39:09;;;;;;;0.70;0.70;;;;;;;9.18;59.34;99879.44;4425514;32;33137;-90
2023/02/22 02:41:46;;;;;;;0.37;0.37;;;;;;;8.93;60.91;99885.59;4425053;32;32806;-89
2023/02/22 02:44:21;;;;;;;0.05;0.05;;;;;;;9.14;60.52;99883.09;4424070;32;33503;-88
2023/02/22 02:46:55;;;;;;;0.15;0.15;;;;;;;9.33;59.37;99884.13;4418206;32;33917;-87
2023/02/22 02:49:50;;;;;;;0.37;0.37;;;;;;;8.94;61.26;99895.19;4414234;32;33841;-87
2023/02/22 02:52:20;;;;;;;0.88;0.88;;;;;;;9.43;59.56;99885.50;4417595;32;32701;-87
2023/02/22 02:54:49;;;;;;;0.05;0.05;;;;;;;9.32;59.50;99887.69;4425218;32;33392;-88
2023/02/22 02:57:16;;;;;;;0.30;0.30;;;;;;;9.11;60.77;99893.72;4423388;32;33080;-87
2023/02/22 02:59:45;;;;;;;1.12;1.12;;;;;;;9.17;61.00;99904.91;4443979;32;32570;-88
2023/02/22 03:02:26;;;;;;;0.75;0.55;;;;;;;9.15;61.31;99900.59;4469528;32;33577;-88
2023/02/22 03:05:00;;;;;;;2.42;1.85;;;;;;;9.28;60.96;99893.97;4469316;32;33577;-88
2023/02/22 03:07:51;;;;;;;0.30;0.30;;;;;;;9.45;60.61;99888.09;4469294;32;32814;-88
2023/02/22 03:10:54;;;;;;;4.18;0.75;;;;;;;9.29;61.20;99885.16;4456089;32;33461;-89
2023/02/22 03:13:44;;;;;;;0.68;0.57;;;;;;;9.67;59.63;99890.75;4455387;32;33322;-89
2023/02/22 03:16:23;;;;;;;1.17;1.02;;;;;;;9.29;60.90;99898.31;4462931;32;33424;-90
2023/02/22 03:19:09;;;;;;;1.08;1.08;;;;;;;9.42;60.75;99896.97;4435118;32;33622;-90
2023/02/22 03:21:46;;;;;;;2.53;1.60;;;;;;;9.45;60.69;99893.38;4425003;32;32461;-89
2023/02/22 03:24:23;;;;;;;0.70;0.70;;;;;;;9.40;61.01;99893.53;4435510;32;32465;-88
2023/02/22 03:27:01;;;;;;;0.32;0.32;;;;;;;9.51;60.80;99892.28;4420216;32;34013;-89
2023/02/22 03:29:34;;;;;;;1.17;0.20;;;;;;;9.52;60.77;99889.56;4425040;32;33073;-89
2023/02/22 03:32:05;;;;;;;0.62;0.52;;;;;;;9.65;60.22;99893.47;4403179;32;32769;-88
2023/02/22 03:34:39;;;;;;;1.55;1.45;;;;;;;9.71;60.30;99895.00;4417883;32;32934;-88
2023/02/22 03:37:17;;;;;;;0.00;0.00;;;;;;;9.66;60.54;99902.22;4402829;32;32788;-88
2023/02/22 03:39:46;;;;;;;0.05;0.05;;;;;;;9.71;60.31;99887.94;4417802;32;32946;-88
2023/02/22 03:42:19;;;;;;;0.10;0.10;;;;;;;9.71;60.33;99895.84;4420294;32;33840;-88
2023/02/22 03:44:48;;;;;;;0.35;0.25;;;;;;;9.71;60.21;99897.62;4422061;32;33681;-89
2023/02/22 03:47:22;;;;;;;0.30;0.30;;;;;;;9.64;60.62;99896.16;4424750;32;32716;-88
2023/02/22 03:49:56;;;;;;;12.73;0.68;;;;;;;9.64;60.59;99901.44;4425243;32;32815;-88
2023/02/22 03:52:24;;;;;;;4.65;1.75;;;;;;;9.71;60.64;99901.13;4408824;32;32914;-88
2023/02/22 03:54:52;;;;;;;0.20;0.20;;;;;;;9.85;60.17;99905.88;4422852;32;33411;-89
2023/02/22 03:57:40;;;;;;;4.85;2.20;;;;;;;10.03;59.02;99909.56;4416782;32;33870;-89
2023/02/22 04:00:13;;;;;;;5.30;1.92;;;;;;;9.78;59.90;99917.59;4418990;32;33520;-89
2023/02/22 04:02:40;;;;;;;0.00;0.00;;;;;;;9.70;60.44;99909.97;4393127;32;33951;-89
2023/02/22 04:05:12;;;;;;;1.75;1.05;;;;;;;9.77;60.34;99904.44;4411567;32;32656;-90
2023/02/22 04:07:41;;;;;;;0.00;0.00;;;;;;;9.80;60.06;99912.25;4441073;32;33799;-89
2023/02/22 04:10:10;;;;;;;0.77;0.77;;;;;;;9.73;60.31;99909.84;4437230;32;33198;-89
2023/02/22 04:12:38;;;;;;;0.68;0.68;;;;;;;9.60;60.63;99913.00;4415051;32;32174;-89
2023/02/22 04:15:08;;;;;;;0.00;0.00;;;;;;;9.68;60.32;99913.56;4437917;32;33181;-88
2023/02/22 04:17:36;;;;;;;0.08;0.08;;;;;;;9.71;60.36;99910.81;4428964;32;32881;-89
2023/02/22 04:20:05;;;;;;;0.30;0.30;;;;;;;9.71;60.20;99906.41;4434674;32;33710;-89
2023/02/22 04:22:34;;;;;;;0.08;0.08;;;;;;;9.58;60.67;99914.81;4446784;32;33712;-89
2023/02/22 04:25:02;;;;;;;0.70;0.70;;;;;;;9.63;60.69;99913.72;4432515;32;32882;-89
2023/02/22 04:27:29;;;;;;;0.15;0.15;;;;;;;9.55;61.06;99910.53;4432979;32;33313;-89
2023/02/22 04:29:57;;;;;;;0.00;0.00;;;;;;;9.51;61.20;99910.72;4427136;32;32987;-88
2023/02/22 04:32:26;;;;;;;0.00;0.00;;;;;;;9.65;60.82;99916.31;4418734;32;33645;-89
2023/02/22 04:34:53;;;;;;;0.00;0.00;;;;;;;9.76;60.21;99908.84;4426136;32;32091;-89
2023/02/22 04:37:21;;;;;;;0.05;0.05;;;;;;;9.67;60.49;99912.69;4434296;32;33096;-89
2023/02/22 04:39:49;;;;;;;0.22;0.22;;;;;;;9.62;60.49;99912.03;4437163;32;33509;-89
2023/02/22 04:42:16;;;;;;;0.00;0.00;;;;;;;9.44;61.12;99924.09;4434580;32;32504;-89
2023/02/22 04:44:45;;;;;;;3.83;0.52;;;;;;;9.59;60.60;99920.06;4417088;32;32544;-89
2023/02/22 04:47:13;;;;;;;0.43;0.43;;;;;;;9.58;60.84;99917.47;4417778;32;33891;-87
2023/02/22 04:49:41;;;;;;;0.37;0.37;;;;;;;9.70;60.70;99919.66;4449745;32;33358;-87
2023/02/22 04:52:08;;;;;;;0.28;0.28;;;;;;;9.66;60.93;99924.16;4437944;32;33561;-87
2023/02/22 04:54:37;;;;;;;1.20;0.85;;;;;;;9.53;61.46;99916.78;4423453;32;32191;-88
2023/02/22 04:57:04;;;;;;;0.10;0.10;;;;;;;9.62;61.35;99919.06;4420891;32;33511;-88
2023/02/22 04:59:33;;;;;;;0.28;0.28;;;;;;;9.86;60.21;99920.75;4424218;32;33386;-88
2023/02/22 05:02:01;;;;;;;0.47;0.35;;;;;;;9.72;60.61;99925.72;4416551;32;32318;-88
2023/02/22 05:04:29;;;;;;;1.45;1.27;;;;;;;9.71;60.78;99916.09;4410123;32;32428;-88
2023/02/22 05:06:56;;;;;;;0.00;0.00;;;;;;;9.46;61.97;99921.44;4423241;32;33251;-87
2023/02/22 05:09:24;;;;;;;0.45;0.45;;;;;;;9.53;62.11;99922.06;4416079;32;33924;-88
2023/02/22 05:11:52;;;;;;;1.60;1.50;;;;;;;9.81;60.82;99920.09;4424631;32;34157;-87
2023/02/22 05:14:19;;;;;;;0.80;0.57;;;;;;;9.73;61.18;99920.41;4419537;32;33278;-87
2023/02/22 05:16:48;;;;;;;0.20;0.20;;;;;;;9.52;61.95;99920.34;4430453;32;32780;-88
2023/02/22 05:19:16;;;;;;;0.10;0.10;;;;;;;9.71;61.40;99916.09;4408578;32;32874;-87
2023/02/22 05:21:43;;;;;;;0.20;0.20;;;;;;;9.74;61.26;99915.97;4435375;32;34319;-89
2023/02/22 05:24:11;;;;;;;0.47;0.47;;;;;;;9.77;61.43;99921.12;4419037;32;33278;-89
2023/02/22 05:26:39;;;;;;;0.03;0.03;;;;;;;9.87;61.22;99921.62;4420843;32;34099;-89
2023/02/22 05:29:07;;;;;;;1.65;1.30;;;;;;;9.90;61.11;99921.50;4426889;32;33532;-89
2023/02/22 05:31:35;;;;;;;0.82;0.82;;;;;;;9.90;61.05;99922.38;4422651;32;33833;-90
2023/02/22 05:34:02;;;;;;;0.10;0.10;;;;;;;9.99;60.78;99926.44;4417025;32;31717;-90
2023/02/22 05:36:30;;;;;;;0.98;0.98;;;;;;;9.83;61.18;99931.44;4433650;32;33462;-89
2023/02/22 05:38:58;;;;;;;0.70;0.70;;;;;;;9.89;61.26;99938.25;4436451;32;34247;-90
2023/02/22 05:41:27;;;;;;;0.52;0.30;;;;;;;10.05;60.83;99941.16;4419941;32;32776;-89
2023/02/22 05:43:55;;;;;;;0.08;0.08;;;;;;;10.04;60.87;99945.56;4412362;32;34343;-90
2023/02/22 05:46:23;;;;;;;0.00;0.00;;;;;;;10.13;60.10;99939.06;4405252;32;33339;-89
2023/02/22 05:48:50;;;;;;;0.10;0.10;;;;;;;10.03;60.76;99945.63;4433063;32;33327;-89
2023/02/22 05:51:18;;;;;;;0.95;0.82;;;;;;;10.18;60.29;99945.88;4420882;32;34475;-88
2023/02/22 05:53:50;;;;;;;0.80;0.65;;;;;;;10.02;60.65;99952.69;4415437;32;32577;-88
2023/02/22 05:56:26;;;;;;;0.00;0.00;;;;;;;9.98;61.07;99946.69;4427250;32;31850;-87
2023/02/22 05:58:54;;;;;;;0.10;0.10;;;;;;;10.13;60.83;99955.75;4427900;32;32966;-89
2023/02/22 06:01:30;;;;;;;0.62;0.50;;;;;;;10.20;60.34;99945.81;4424310;32;32949;-90
2023/02/22 06:04:24;;;;;;;0.10;0.10;;;;;;;10.06;60.94;99954.28;4415773;32;34800;-89
2023/02/22 06:06:52;;;;;;;0.55;0.55;;;;;;;10.17;60.92;99956.50;4433361;32;32951;-90
2023/02/22 06:09:22;;;;;;;0.40;0.40;;;;;;;10.13;61.27;99960.19;4412091;32;33369;-91
2023/02/22 06:11:51;;;;;;;0.90;0.90;;;;;;;10.21;61.13;99960.75;4443261;32;33798;-91
2023/02/22 06:14:21;;;;;;;0.57;0.57;;;;;;;10.27;61.03;99963.16;4400404;32;33628;-91
2023/02/22 06:16:55;;;;;;;0.47;0.43;;;;;;;10.28;61.12;99964.88;4415485;32;33240;-92
2023/02/22 06:19:42;;;;;;;0.65;0.65;;;;;;;10.18;61.62;99968.78;4419073;32;35255;-90
2023/02/22 06:22:17;;;;;;;2.53;1.42;;;;;;;10.31;61.54;99962.13;4398040;32;33389;-92
2023/02/22 06:24:45;;;;;;;0.45;0.45;;;;;;;10.35;61.56;99970.75;4394593;32;32448;-91
2023/02/22 06:27:13;;;;;;;1.55;0.65;;;;;;;10.37;61.65;99975.06;4401253;32;32803;-91
2023/02/22 06:29:45;;;;;;;0.30;0.30;;;;;;;10.33;61.83;99972.63;4393196;32;33978;-89
2023/02/22 06:32:14;;;;;;;1.10;0.90;;;;;;;10.46;61.62;99977.34;4414333;32;32940;-90
2023/02/22 06:34:41;;;;;;;0.25;0.25;;;;;;;10.57;61.64;99976.03;4411727;32;32673;-90
2023/02/22 06:37:09;;;;;;;0.75;0.70;;;;;;;10.63;61.64;99975.78;4394088;32;33072;-89
2023/02/22 06:39:37;;;;;;;0.75;0.75;;;;;;;10.50;62.21;99978.94;4404516;32;33355;-89
2023/02/22 06:42:05;;;;;;;1.98;1.45;;;;;;;10.58;62.11;99978.63;4404150;32;33742;-88
2023/02/22 06:44:33;;;;;;;3.75;0.60;;;;;;;10.84;61.59;99980.19;4427558;32;33034;-88
2023/02/22 06:47:01;;;;;;;3.50;2.65;;;;;;;10.83;61.94;99988.19;4439491;32;33828;-88
2023/02/22 06:49:29;;;;;;;0.93;0.93;;;;;;;11.05;61.16;99982.84;4431751;32;33277;-88
2023/02/22 06:51:56;;;;;;;12.63;4.78;;;;;;;11.15;60.68;99986.81;4442635;32;33136;-89
2023/02/22 06:54:24;;;;;;;1.05;0.85;;;;;;;11.25;60.40;99991.66;4421590;32;33724;-89
2023/02/22 06:56:52;;;;;;;0.20;0.20;;;;;;;11.29;60.31;99997.62;4432178;32;32918;-89
2023/02/22 06:59:19;;;;;;;0.30;0.30;;;;;;;11.18;60.97;99986.69;4410931;32;33660;-88
2023/02/22 07:01:47;;;;;;;1.87;0.85;;;;;;;11.20;60.95;99998.94;4421467;32;33328;-88
2023/02/22 07:04:15;;;;;;;0.43;0.43;;;;;;;11.30;60.85;99994.09;4418550;32;32698;-88
2023/02/22 07:06:47;;;;;;;0.15;0.15;;;;;;;11.43;60.51;99987.31;4415025;32;32554;-87
2023/02/22 07:09:16;;;;;;;0.37;0.37;;;;;;;11.46;60.69;99987.19;4416884;32;33020;-87
2023/02/22 07:11:43;;;;;;;1.33;1.23;;;;;;;11.45;60.87;99998.72;4424037;32;33155;-87
2023/02/22 07:14:11;;;;;;;1.30;0.93;;;;;;;11.88;59.21;99978.28;4402946;32;32568;-87
2023/02/22 07:16:39;;;;;;;0.10;0.10;;;;;;;11.93;58.92;99986.88;4430786;32;34728;-87
2023/02/22 07:19:07;;;;;;;3.78;1.67;;;;;;;11.81;59.64;99979.44;4425522;32;32949;-85
2023/02/22 07:21:34;;;;;;;22.55;6.43;;;;;;;12.01;59.17;99982.09;4437425;32;34133;-85
2023/02/22 07:24:03;;;;;;;4.70;4.32;;;;;;;12.02;59.17;99983.78;4429305;32;31985;-86
2023/02/22 07:26:39;;;;;;;1.10;0.90;;;;;;;12.03;59.10;99993.44;4443845;32;33485;-85
2023/02/22 07:29:07;;;;;;;0.22;0.22;;;;;;;12.19;58.21;99992.72;4427182;32;33665;-86
2023/02/22 07:31:37;;;;;;;0.35;0.35;;;;;;;12.08;58.13;99984.44;4426335;32;33954;-85
2023/02/22 07:34:05;;;;;;;0.30;0.30;;;;;;;12.13;57.57;99991.22;4418080;32;31837;-85
2023/02/22 07:36:33;;;;;;;0.30;0.30;;;;;;;12.06;57.93;99987.16;4422581;32;33272;-85
2023/02/22 07:39:01;;;;;;;0.32;0.32;;;;;;;12.22;57.41;99995.22;4425978;32;32895;-86
2023/02/22 07:41:28;;;;;;;1.00;0.93;;;;;;;12.34;56.75;99983.19;4424059;32;32795;-85
2023/02/22 07:43:56;;;;;;;1.52;0.95;;;;;;;12.28;56.96;99990.50;4417337;32;31930;-86
2023/02/22 07:46:24;;;;;;;1.67;1.58;;;;;;;12.28;56.85;99995.78;4446207;32;32667;-85
2023/02/22 07:48:51;;;;;;;0.10;0.10;;;;;;;12.25;57.30;99995.09;4432932;32;34839;-86
2023/02/22 07:51:19;;;;;;;2.97;1.60;;;;;;;12.40;56.98;99994.34;4407340;32;33706;-86
2023/02/22 07:53:47;;;;;;;1.55;0.85;;;;;;;12.45;56.47;99981.75;4426399;32;36374;-86
2023/02/22 07:56:14;;;;;;;0.47;0.47;;;;;;;12.95;55.98;99985.47;4435872;32;33154;-85
2023/02/22 07:58:43;;;;;;;0.10;0.10;;;;;;;12.72;55.98;99984.84;4434693;32;33617;-86
2023/02/22 08:01:10;;;;;;;0.43;0.43;;;;;;;12.73;55.92;99986.56;4429571;32;33899;-86
2023/02/22 08:03:38;;;;;;;0.43;0.43;;;;;;;12.76;56.14;99985.53;4435085;32;31786;-86
2023/02/22 08:06:07;;;;;;;0.30;0.30;;;;;;;13.11;55.08;99983.78;4445632;32;34034;-86
2023/02/22 08:08:35;;;;;;;1.48;1.37;;;;;;;13.19;54.92;99988.66;4442506;32;32283;-85
2023/02/22 08:11:03;;;;;;;0.95;0.95;;;;;;;13.41;53.69;99986.66;4432943;32;34462;-85
2023/02/22 08:13:31;;;;;;;0.75;0.75;;;;;;;13.28;54.21;99982.91;4434007;32;32000;-85
2023/02/22 08:15:59;;;;;;;0.40;0.40;;;;;;;13.48;54.14;99982.75;4433451;32;32780;-86
2023/02/22 08:18:27;;;;;;;10.77;3.42;;;;;;;13.87;53.39;99976.25;4445941;32;33528;-85
2023/02/22 08:20:55;;;;;;;0.93;0.93;;;;;;;13.94;53.07;99972.31;4439199;32;32658;-85
2023/02/22 08:23:24;;;;;;;0.80;0.80;;;;;;;13.99;53.20;99974.72;4426881;32;32545;-85
2023/02/22 08:25:52;;;;;;;0.80;0.70;;;;;;;14.22;52.29;99971.63;4436517;32;33713;-85
2023/02/22 08:28:22;;;;;;;1.05;1.05;;;;;;;14.01;52.62;99968.38;4430765;32;32495;-85
2023/02/22 08:30:51;;;;;;;0.15;0.15;;;;;;;14.16;52.30;99976.44;4434861;32;33504;-85
2023/02/22 08:33:19;;;;;;;1.20;1.10;;;;;;;14.42;52.16;99964.34;4417638;32;32662;-85
2023/02/22 08:35:48;;;;;;;0.43;0.30;;;;;;;14.41;52.25;99970.59;4422037;32;33652;-85
2023/02/22 08:38:16;;;;;;;0.10;0.10;;;;;;;14.45;52.01;99973.00;4438108;32;32254;-86
2023/02/22 08:40:44;;;;;;;0.40;0.40;;;;;;;14.57;51.56;99968.81;4450415;32;32935;-86
2023/02/22 08:43:13;;;;;;;0.10;0.10;;;;;;;14.70;51.39;99974.28;4433655;32;33265;-86
2023/02/22 08:45:41;;;;;;;0.68;0.52;;;;;;;14.75;51.31;99969.53;4430715;32;32779;-86
2023/02/22 08:48:10;;;;;;;4.03;1.27;;;;;;;14.95;50.81;99971.88;4435655;32;33549;-86
2023/02/22 08:50:40;;;;;;;1.17;1.12;;;;;;;14.63;51.06;99972.94;4435788;32;34389;-86
2023/02/22 08:53:09;;;;;;;0.40;0.40;;;;;;;14.91;50.95;99965.06;4423685;32;33627;-86
2023/02/22 08:55:42;;;;;;;0.37;0.30;;;;;;;15.00;50.82;99968.94;4423862;32;32416;-85
2023/02/22 08:58:10;;;;;;;0.60;0.60;;;;;;;14.33;52.08;99984.31;4435901;32;33879;-86
2023/02/22 09:00:39;;;;;;;2.10;1.02;;;;;;;14.33;51.98;99976.34;4410167;32;32772;-86
2023/02/22 09:03:10;;;;;;;0.50;0.50;;;;;;;14.72;51.28;99975.06;4436685;32;32832;-85
2023/02/22 09:05:39;;;;;;;0.80;0.80;;;;;;;14.60;51.92;99979.25;4422446;32;33272;-86
2023/02/22 09:08:06;;;;;;;1.75;1.40;;;;;;;14.52;51.57;99969.06;4423794;31;33004;-84
2023/02/22 09:10:35;;;;;;;0.95;0.95;;;;;;;14.66;51.16;99975.41;4423839;32;33032;-84
2023/02/22 09:13:03;;;;;;;2.40;0.90;;;;;;;14.73;51.41;99972.31;4413131;32;32619;-85
2023/02/22 09:15:34;;;;;;;0.60;0.60;;;;;;;14.90;50.81;99967.78;4432687;32;32893;-84
2023/02/22 09:18:04;;;;;;;0.43;0.43;;;;;;;14.80;50.82;99970.97;4448849;32;34796;-84
2023/02/22 09:20:31;;;;;;;0.90;0.90;;;;;;;15.09;50.99;99966.59;4428670;32;35078;-84
2023/02/22 09:23:01;;;;;;;1.65;0.85;;;;;;;15.20;50.04;99962.47;4433702;32;33278;-84
2023/02/22 09:25:29;;;;;;;0.73;0.73;;;;;;;15.17;49.95;99971.47;4429188;32;33388;-84
2023/02/22 09:27:57;;;;;;;0.00;0.00;;;;;;;15.11;50.29;99969.19;4439445;32;33911;-84
2023/02/22 09:30:31;;;;;;;7.87;2.90;;;;;;;15.27;49.72;99966.47;4437364;32;33469;-84
2023/02/22 09:33:02;;;;;;;1.48;1.37;;;;;;;15.42;49.93;99962.00;4424348;32;32039;-84
2023/02/22 09:35:34;;;;;;;1.02;0.60;;;;;;;15.48;49.27;99964.31;4447088;32;33773;-84
2023/02/22 09:38:05;;;;;;;0.55;0.55;;;;;;;15.48;49.21;99959.84;4434993;32;33526;-84
2023/02/22 09:40:39;;;;;;;3.58;1.50;;;;;;;15.44;49.39;99958.31;4436522;32;33824;-85
2023/02/22 09:43:17;;;;;;;14.23;0.60;;;;;;;15.44;49.54;99960.97;4443256;32;31876;-86
2023/02/22 09:45:53;;;;;;;1.75;0.85;;;;;;;15.73;48.84;99948.56;4438738;32;33897;-86
2023/02/22 09:48:21;;;;;;;2.47;1.45;;;;;;;15.79;49.04;99950.81;4425729;32;32582;-87
2023/02/22 09:50:50;;;;;;;0.55;0.55;;;;;;;15.81;48.53;99950.75;4439648;31;33483;-85
2023/02/22 09:53:35;;;;;;;1.35;1.23;;;;;;;15.95;48.44;99952.50;4418632;32;32761;-85
2023/02/22 09:56:16;;;;;;;6.37;5.10;;;;;;;15.90;48.94;99944.81;4432719;32;32874;-85
2023/02/22 09:58:51;;;;;;;1.70;1.35;;;;;;;15.75;49.58;99943.97;4456966;31;34617;-85
2023/02/22 10:01:25;;;;;;;25.10;6.97;;;;;;;15.71;49.65;99946.94;4425630;32;33124;-85
2023/02/22 10:03:53;;;;;;;0.62;0.30;;;;;;;15.61;50.16;99949.28;4443477;32;32249;-85
2023/02/22 10:06:23;;;;;;;0.62;0.62;;;;;;;15.69;48.92;99943.53;4439991;32;32813;-85
2023/02/22 10:08:55;;;;;;;0.43;0.37;;;;;;;15.72;49.53;99944.19;4431699;32;33309;-86
2023/02/22 10:11:30;;;;;;;10.50;3.55;;;;;;;15.83;49.42;99948.84;4431931;32;32906;-86
2023/02/22 10:14:22;;;;;;;1.20;0.52;;;;;;;15.91;48.92;99951.88;4441171;32;33043;-85
2023/02/22 10:17:14;;;;;;;1.33;1.27;;;;;;;16.18;47.82;99948.37;4436354;32;34551;-85
2023/02/22 10:19:52;;;;;;;0.85;0.85;;;;;;;16.24;47.19;99943.53;4437653;32;34286;-85
2023/02/22 10:23:00;;;;;;;0.82;0.68;;;;;;;16.00;47.68;99948.63;4405689;32;33246;-85
2023/02/22 10:25:33;;;;;;;0.35;0.35;;;;;;;15.85;49.00;99957.56;4425331;32;33645;-85
2023/02/22 10:28:26;;;;;;;2.28;1.75;;;;;;;15.78;49.20;99946.47;4429775;32;33911;-85
2023/02/22 10:30:57;;;;;;;0.62;0.62;;;;;;;15.88;49.03;99947.59;4429531;32;33166;-85
2023/02/22 10:33:26;;;;;;;;;;;;;;;16.12;47.96;99949.63;4434141;32;34094;-85
2023/02/22 10:35:55;;;;;;;0.65;0.65;;;;;;;16.07;48.28;99936.62;4425639;32;32168;-85
2023/02/22 10:38:25;;;;;;;0.98;0.93;;;;;;;15.78;49.87;99941.13;4419077;32;33251;-86
2023/02/22 10:41:08;;;;;;;5.32;1.25;;;;;;;16.26;48.16;99936.28;4422333;32;33523;-86
2023/02/22 10:43:36;;;;;;;1.58;0.57;;;;;;;16.07;49.18;99936.62;4422093;32;32715;-85
2023/02/22 10:46:07;;;;;;;11.90;1.92;;;;;;;16.12;48.25;99937.16;4419011;32;32319;-85
2023/02/22 10:48:37;;;;;;;1.65;1.55;;;;;;;15.93;49.37;99944.62;4436809;32;32830;-85
2023/02/22 10:51:07;;;;;;;1.08;1.05;;;;;;;15.94;48.76;99935.69;4443387;32;33009;-86
2023/02/22 10:53:37;;;;;;;0.88;0.88;;;;;;;16.25;48.60;99921.25;4426948;32;32611;-86
2023/02/22 10:56:17;;;;;;;1.50;1.40;;;;;;;15.97;48.33;99930.16;4426985;32;32167;-86
2023/02/22 10:58:53;;;;;;;1.45;1.35;;;;;;;16.17;48.69;99922.72;4424984;32;32017;-86
2023/02/22 11:01:22;;;;;;;1.73;1.62;;;;;;;16.34;47.65;99927.81;4426093;32;33011;-86
2023/02/22 11:04:18;;;;;;;3.22;1.83;;;;;;;16.12;48.16;99933.66;4444442;32;33928;-86
2023/02/22 11:06:48;;;;;;;1.00;0.93;;;;;;;15.85;48.91;99936.25;4424774;32;33635;-86
2023/02/22 11:09:21;;;;;;;1.02;1.02;;;;;;;15.59;49.93;99924.56;4419674;32;33595;-86
2023/02/22 11:12:06;;;;;;;3.90;1.87;;;;;;;15.43;49.98;99931.78;4426204;32;33236;-86
2023/02/22 11:14:34;;;;;;;4.47;1.33;;;;;;;15.69;50.04;99924.87;4432110;32;33943;-86
2023/02/22 11:17:06;;;;;;;2.87;0.73;;;;;;;15.82;49.65;99921.34;4426827;32;32003;-86
2023/02/22 11:19:37;;;;;;;5.62;2.45;;;;;;;15.71;49.70;99917.66;4437781;32;32841;-86
2023/02/22 11:22:04;;;;;;;1.98;1.77;;;;;;;15.69;49.87;99914.25;4429171;31;32538;-86
2023/02/22 11:24:32;;;;;;;1.23;0.90;;;;;;;15.58;50.26;99910.41;4453980;32;33530;-85
2023/02/22 11:27:30;;;;;;;2.80;2.60;;;;;;;15.80;49.47;99909.94;4443378;32;33370;-86
2023/02/22 11:30:20;;;;;;;15.02;7.90;;;;;;;15.55;49.70;99913.25;4423559;32;33206;-86
2023/02/22 11:32:53;;;;;;;2.25;1.98;;;;;;;15.70;50.22;99913.28;4438519;32;34212;-85
2023/02/22 11:35:26;;;;;;;;;;;;;;;15.59;50.34;99906.78;4428306;32;33011;-85
2023/02/22 11:38:15;;;;;;;2.22;1.45;;;;;;;15.68;49.87;99897.41;4433578;32;35644;-85
2023/02/22 11:40:44;;;;;;;1.40;1.23;;;;;;;15.40;50.76;99902.72;4444484;32;33800;-85
2023/02/22 11:43:18;;;;;;;2.05;1.95;;;;;;;15.80;50.32;99901.09;4424534;32;34441;-85
2023/02/22 11:46:10;;;;;;;1.65;1.17;;;;;;;15.71;49.73;99902.53;4442755;32;34300;-85
2023/02/22 11:48:40;;;;;;;;;;;;;;;15.83;49.54;99900.91;4427427;32;32214;-85
2023/02/22 11:51:33;;;;;;;19.77;9.75;;;;;;;15.98;49.08;99889.25;4451641;32;32609;-86
2023/02/22 11:54:38;;;;;;;8.70;1.90;;;;;;;15.85;49.55;99899.00;4444286;32;32594;-85
2023/02/22 11:57:15;;;;;;;2.62;2.05;;;;;;;16.17;48.66;99898.72;4421030;32;33301;-86
2023/02/22 11:59:51;;;;;;;3.70;2.25;;;;;;;15.80;49.68;99898.44;4440525;32;33284;-86